Main page
METAR-TAF:

METAR-TAF

Airports :

Toronto, Ontario, Canada

Toronto Pearson International Airport

latitude: 43-40N, longitude: 079-38W, elevation: 173 m

Current weather observation

The report was made 58 minutes ago, at 02:00 UTC
Wind 6 kt from the North
Temperature 9°C
Humidity 34%
Pressure 1029 hPa
Visibility: 24.1 km
Few clouds at a height of 26000 ft

METAR: CYYZ 220200Z 35006KT 15SM FEW260 09/M06 A3040 RMK CI1 CI TR SLP300

Time: 22:58 (02:58 UTC)

Forecast

The report was made 20 minutes ago, at 02:38 UTC
Forecast valid from 22 at 03 UTC to 23 at 06 UTC
Wind 5 kt from the North
Visibility: 10 km
Few clouds at a height of 25000 ft
Becoming
from 22 at 16 UTC to 22 at 18 UTC
Wind 8 kt from the South/Southeast
Becoming
from 23 at 01 UTC to 23 at 03 UTC
Wind 5 kt from the North

TAF: CYYZ 220238Z 2203/2306 35005KT P6SM FEW250 BECMG 2216/2218 16008KT BECMG 2301/2303 36005KT RMK NXT FCST BY 220600Z

Weather observations and forecasts of more than 4000 airports (METAR and TAF reports).

The available stations are represented by yellow and red dots on the map.

Hover mouse over dot to see the name of the station.

Then click to see weather observations and forecasts.

To change the map : click on the green buttons with a black cross to zoom in, on the green button with a dash to zoom out, or on the green arrows for adjacent maps.


METAR-TAF: